sensor_id;sensor_type;location;lat;lon;timestamp;temperature;humidity
5828;DHT22;42583;50.240;8.444;2022-12-18T00:00:33;-2.40;91.90
5828;DHT22;42583;50.240;8.444;2022-12-18T00:15:35;-2.30;92.00
5828;DHT22;42583;50.240;8.444;2022-12-18T00:30:35;-2.30;92.00
5828;DHT22;42583;50.240;8.444;2022-12-18T00:45:35;-2.20;91.30
5828;DHT22;42583;50.240;8.444;2022-12-18T01:00:36;-2.20;90.80
5828;DHT22;42583;50.240;8.444;2022-12-18T01:15:38;-2.10;90.50
5828;DHT22;42583;50.240;8.444;2022-12-18T01:30:39;-2.20;90.90
5828;DHT22;42583;50.240;8.444;2022-12-18T01:45:39;-2.20;90.90
5828;DHT22;42583;50.240;8.444;2022-12-18T02:00:40;-2.20;90.70
5828;DHT22;42583;50.240;8.444;2022-12-18T02:16:24;-2.30;90.00
5828;DHT22;42583;50.240;8.444;2022-12-18T02:31:25;-2.30;88.20
5828;DHT22;42583;50.240;8.444;2022-12-18T02:46:35;-2.40;88.30
5828;DHT22;42583;50.240;8.444;2022-12-18T03:01:44;-2.50;89.00
5828;DHT22;42583;50.240;8.444;2022-12-18T03:16:53;-2.60;90.80
5828;DHT22;42583;50.240;8.444;2022-12-18T03:31:58;-2.70;91.40
5828;DHT22;42583;50.240;8.444;2022-12-18T03:47:12;-2.80;91.30
5828;DHT22;42583;50.240;8.444;2022-12-18T04:02:16;-2.70;90.30
5828;DHT22;42583;50.240;8.444;2022-12-18T04:17:17;-2.70;90.70
5828;DHT22;42583;50.240;8.444;2022-12-18T04:32:18;-2.70;91.10
5828;DHT22;42583;50.240;8.444;2022-12-18T04:47:18;-2.80;91.20
5828;DHT22;42583;50.240;8.444;2022-12-18T05:02:19;-2.80;90.90
5828;DHT22;42583;50.240;8.444;2022-12-18T05:17:19;-2.80;90.30
5828;DHT22;42583;50.240;8.444;2022-12-18T05:32:20;-2.70;88.50
5828;DHT22;42583;50.240;8.444;2022-12-18T05:47:20;-2.70;88.40
5828;DHT22;42583;50.240;8.444;2022-12-18T06:02:21;-2.70;87.10
5828;DHT22;42583;50.240;8.444;2022-12-18T06:17:21;-2.60;82.60
5828;DHT22;42583;50.240;8.444;2022-12-18T06:32:22;-2.50;80.40
5828;DHT22;42583;50.240;8.444;2022-12-18T06:47:23;-2.30;77.20
5828;DHT22;42583;50.240;8.444;2022-12-18T07:02:23;-2.30;75.80
5828;DHT22;42583;50.240;8.444;2022-12-18T07:17:24;-2.20;71.80
5828;DHT22;42583;50.240;8.444;2022-12-18T07:32:25;-2.00;65.00
5828;DHT22;42583;50.240;8.444;2022-12-18T07:47:25;-1.70;60.30
5828;DHT22;42583;50.240;8.444;2022-12-18T08:02:26;-1.70;60.60
5828;DHT22;42583;50.240;8.444;2022-12-18T08:17:26;-1.60;58.10
5828;DHT22;42583;50.240;8.444;2022-12-18T08:32:27;-1.60;59.00
5828;DHT22;42583;50.240;8.444;2022-12-18T08:47:28;-1.60;61.80
5828;DHT22;42583;50.240;8.444;2022-12-18T09:02:29;-1.60;63.30
5828;DHT22;42583;50.240;8.444;2022-12-18T09:17:29;-0.10;59.50
5828;DHT22;42583;50.240;8.444;2022-12-18T09:32:30;0.80;53.30
5828;DHT22;42583;50.240;8.444;2022-12-18T09:47:34;1.90;50.10
5828;DHT22;42583;50.240;8.444;2022-12-18T10:02:36;3.20;47.60
5828;DHT22;42583;50.240;8.444;2022-12-18T10:17:50;4.20;41.50
5828;DHT22;42583;50.240;8.444;2022-12-18T10:32:52;5.70;37.20
5828;DHT22;42583;50.240;8.444;2022-12-18T10:47:52;6.30;32.60
5828;DHT22;42583;50.240;8.444;2022-12-18T11:02:53;6.20;32.30
5828;DHT22;42583;50.240;8.444;2022-12-18T11:17:54;6.90;34.60
5828;DHT22;42583;50.240;8.444;2022-12-18T12:03:27;7.50;40.50
5828;DHT22;42583;50.240;8.444;2022-12-18T12:34:51;5.00;41.80
5828;DHT22;42583;50.240;8.444;2022-12-18T12:49:58;4.20;43.40
5828;DHT22;42583;50.240;8.444;2022-12-18T13:05:22;3.70;43.90
5828;DHT22;42583;50.240;8.444;2022-12-18T13:20:33;2.60;44.80
5828;DHT22;42583;50.240;8.444;2022-12-18T13:35:37;1.70;45.70
5828;DHT22;42583;50.240;8.444;2022-12-18T13:50:38;0.80;46.00
5828;DHT22;42583;50.240;8.444;2022-12-18T14:05:39;0.50;41.80
5828;DHT22;42583;50.240;8.444;2022-12-18T14:20:43;0.50;41.80
5828;DHT22;42583;50.240;8.444;2022-12-18T14:36:04;0.40;44.30
5828;DHT22;42583;50.240;8.444;2022-12-18T15:06:39;0.10;49.70
5828;DHT22;42583;50.240;8.444;2022-12-18T15:21:42;0.20;56.20
5828;DHT22;42583;50.240;8.444;2022-12-18T15:36:43;0.40;71.10
5828;DHT22;42583;50.240;8.444;2022-12-18T15:51:45;0.60;78.20
5828;DHT22;42583;50.240;8.444;2022-12-18T16:06:49;0.80;90.00
5828;DHT22;42583;50.240;8.444;2022-12-18T16:21:51;1.20;95.90
5828;DHT22;42583;50.240;8.444;2022-12-18T16:36:53;1.50;99.10
5828;DHT22;42583;50.240;8.444;2022-12-18T16:51:55;2.00;99.90
5828;DHT22;42583;50.240;8.444;2022-12-18T17:06:56;2.50;99.90
5828;DHT22;42583;50.240;8.444;2022-12-18T17:21:56;2.60;98.80
5828;DHT22;42583;50.240;8.444;2022-12-18T17:36:57;2.20;90.20
5828;DHT22;42583;50.240;8.444;2022-12-18T17:51:57;2.20;90.20
5828;DHT22;42583;50.240;8.444;2022-12-18T18:06:58;2.00;91.00
5828;DHT22;42583;50.240;8.444;2022-12-18T18:21:58;2.00;87.10
5828;DHT22;42583;50.240;8.444;2022-12-18T18:37:00;2.00;91.50
5828;DHT22;42583;50.240;8.444;2022-12-18T18:52:00;2.10;94.00
5828;DHT22;42583;50.240;8.444;2022-12-18T19:07:02;2.20;91.90
5828;DHT22;42583;50.240;8.444;2022-12-18T19:22:03;2.40;95.10
5828;DHT22;42583;50.240;8.444;2022-12-18T19:37:06;2.60;93.90
5828;DHT22;42583;50.240;8.444;2022-12-18T19:52:07;2.60;93.30
5828;DHT22;42583;50.240;8.444;2022-12-18T20:07:07;2.50;90.60
5828;DHT22;42583;50.240;8.444;2022-12-18T20:22:08;2.90;97.20
5828;DHT22;42583;50.240;8.444;2022-12-18T20:37:09;3.00;92.60
5828;DHT22;42583;50.240;8.444;2022-12-18T20:52:09;2.80;95.30
5828;DHT22;42583;50.240;8.444;2022-12-18T21:07:10;3.00;90.40
5828;DHT22;42583;50.240;8.444;2022-12-18T21:22:10;3.40;89.50
5828;DHT22;42583;50.240;8.444;2022-12-18T21:37:11;3.20;90.60
5828;DHT22;42583;50.240;8.444;2022-12-18T21:52:11;3.20;91.30
5828;DHT22;42583;50.240;8.444;2022-12-18T22:07:14;3.20;91.30
5828;DHT22;42583;50.240;8.444;2022-12-18T22:22:14;3.20;92.50
5828;DHT22;42583;50.240;8.444;2022-12-18T22:37:15;3.40;86.50
5828;DHT22;42583;50.240;8.444;2022-12-18T22:52:15;3.30;75.60
5828;DHT22;42583;50.240;8.444;2022-12-18T23:07:16;3.30;72.30
5828;DHT22;42583;50.240;8.444;2022-12-18T23:22:17;3.50;76.90
5828;DHT22;42583;50.240;8.444;2022-12-18T23:37:18;3.50;77.10
5828;DHT22;42583;50.240;8.444;2022-12-18T23:52:18;3.40;75.40
